createdAt,value
2023-02-24T00:01:13.909Z,5.70
2023-02-24T00:05:15.559Z,5.60
2023-02-24T00:09:20.100Z,5.50
2023-02-24T00:13:22.260Z,5.50
2023-02-24T00:17:27.594Z,5.40
2023-02-24T00:21:29.727Z,5.40
2023-02-24T00:25:31.357Z,5.40
2023-02-24T00:29:33.703Z,5.40
2023-02-24T00:33:35.464Z,5.40
2023-02-24T00:37:37.133Z,5.30
2023-02-24T00:41:43.338Z,5.30
2023-02-24T00:45:47.058Z,5.30
2023-02-24T00:49:49.949Z,5.20
2023-02-24T00:53:57.137Z,5.20
2023-02-24T00:57:58.729Z,5.20
2023-02-24T01:02:00.646Z,5.10
2023-02-24T01:06:03.269Z,4.90
2023-02-24T01:10:08.409Z,4.90
2023-02-24T01:14:13.676Z,4.90
2023-02-24T01:18:15.359Z,4.90
2023-02-24T01:22:19.513Z,4.90
2023-02-24T01:26:21.332Z,4.80
2023-02-24T01:30:23.023Z,4.80
2023-02-24T01:34:26.255Z,4.90
2023-02-24T01:38:28.082Z,4.90
2023-02-24T01:42:29.879Z,4.90
2023-02-24T01:46:36.060Z,4.90
2023-02-24T01:50:38.560Z,4.80
2023-02-24T01:54:42.958Z,4.80
2023-02-24T01:58:44.680Z,4.70
2023-02-24T02:02:52.602Z,4.70
2023-02-24T02:06:54.406Z,4.70
2023-02-24T02:11:02.730Z,4.70
2023-02-24T02:15:06.543Z,4.70
2023-02-24T02:19:30.450Z,4.70
2023-02-24T02:23:43.436Z,4.80
2023-02-24T02:28:08.521Z,4.70
2023-02-24T02:32:34.276Z,4.60
2023-02-24T02:36:54.746Z,4.60
2023-02-24T02:41:17.257Z,4.50
2023-02-24T02:45:24.538Z,4.40
2023-02-24T02:49:34.185Z,4.30
2023-02-24T02:53:49.289Z,4.30
2023-02-24T02:57:55.066Z,4.30
2023-02-24T03:02:11.485Z,4.30
2023-02-24T03:06:23.207Z,4.40
2023-02-24T03:10:29.755Z,4.40
2023-02-24T03:14:34.896Z,4.30
2023-02-24T03:18:44.561Z,4.30
2023-02-24T03:22:54.708Z,4.30
2023-02-24T03:27:12.938Z,4.20
2023-02-24T03:31:28.034Z,4.20
2023-02-24T03:35:34.241Z,4.20
2023-02-24T03:39:36.479Z,4.20
2023-02-24T03:43:46.301Z,4.20
2023-02-24T03:47:48.238Z,4.20
2023-02-24T03:52:12.529Z,4.20
2023-02-24T03:56:40.267Z,4.10
2023-02-24T04:01:11.740Z,4.10
2023-02-24T04:05:21.514Z,4.10
2023-02-24T04:09:40.666Z,4.10
2023-02-24T04:13:49.765Z,4.10
2023-02-24T04:17:58.501Z,4.10
2023-02-24T04:22:01.292Z,4.10
2023-02-24T04:26:03.262Z,4.10
2023-02-24T04:30:06.902Z,4.10
2023-02-24T04:34:09.517Z,4.10
2023-02-24T04:38:11.738Z,4.20
2023-02-24T04:42:13.332Z,4.10
2023-02-24T04:46:15.322Z,4.20
2023-02-24T04:50:24.905Z,4.20
2023-02-24T04:54:27.805Z,4.10
2023-02-24T04:58:29.512Z,4.20
2023-02-24T05:02:31.738Z,4.20
2023-02-24T05:06:34.135Z,4.10
2023-02-24T05:10:41.929Z,4.10
2023-02-24T05:14:43.954Z,4.00
2023-02-24T05:18:45.705Z,4.00
2023-02-24T05:22:53.479Z,4.10
2023-02-24T05:26:59.416Z,4.10
2023-02-24T05:31:10.004Z,4.00
2023-02-24T05:35:11.809Z,3.90
2023-02-24T05:39:19.062Z,4.00
2023-02-24T05:43:20.712Z,4.00
2023-02-24T05:47:23.617Z,4.00
2023-02-24T05:51:35.766Z,4.10
2023-02-24T05:55:37.420Z,4.20
2023-02-24T05:59:40.884Z,4.20
2023-02-24T06:03:48.154Z,4.20
2023-02-24T06:07:49.818Z,4.20
2023-02-24T06:11:51.494Z,4.20
2023-02-24T06:15:57.057Z,4.10
2023-02-24T06:19:58.749Z,4.10
2023-02-24T06:24:00.709Z,4.20
2023-02-24T06:28:02.382Z,4.20
2023-02-24T06:32:08.538Z,4.20
2023-02-24T06:36:10.326Z,4.20
2023-02-24T06:40:18.387Z,4.20
2023-02-24T06:44:20.043Z,4.20
2023-02-24T06:48:22.899Z,4.20
2023-02-24T06:52:26.289Z,4.30
2023-02-24T06:56:28.369Z,4.30
2023-02-24T07:00:40.728Z,4.30
2023-02-24T07:04:45.047Z,4.30
2023-02-24T07:08:48.282Z,4.30
2023-02-24T07:12:50.962Z,4.30
2023-02-24T07:16:58.344Z,4.30
2023-02-24T07:21:05.063Z,4.30
2023-02-24T07:25:07.114Z,4.30
2023-02-24T07:29:11.276Z,4.40
2023-02-24T07:33:14.150Z,4.50
2023-02-24T07:37:16.649Z,4.50
2023-02-24T07:41:22.725Z,4.60
2023-02-24T07:45:24.794Z,4.70
2023-02-24T07:49:27.922Z,4.70
2023-02-24T07:53:29.634Z,4.70
2023-02-24T07:57:33.180Z,4.60
2023-02-24T08:01:39.805Z,4.60
2023-02-24T08:05:43.466Z,4.70
2023-02-24T08:09:45.240Z,4.80
2023-02-24T08:13:47.028Z,4.80
2023-02-24T08:17:48.675Z,4.80
2023-02-24T08:21:53.072Z,4.80
2023-02-24T08:25:54.766Z,4.90
2023-02-24T08:30:01.409Z,4.80
2023-02-24T08:34:03.463Z,4.90
2023-02-24T08:38:07.592Z,4.90
2023-02-24T08:42:14.073Z,4.90
2023-02-24T08:46:20.840Z,4.90
2023-02-24T08:50:22.531Z,5.00
2023-02-24T08:54:27.616Z,5.10
2023-02-24T08:58:29.317Z,5.20
2023-02-24T09:02:31.033Z,5.20
2023-02-24T09:06:52.545Z,5.30
2023-02-24T09:10:59.217Z,5.30
2023-02-24T09:15:07.379Z,5.40
2023-02-24T09:19:40.331Z,5.40
2023-02-24T09:23:45.938Z,5.30
2023-02-24T09:27:55.363Z,5.30
2023-02-24T09:32:07.046Z,5.30
2023-02-24T09:36:19.823Z,5.20
2023-02-24T09:40:21.524Z,5.30
2023-02-24T09:44:36.356Z,5.40
2023-02-24T09:48:56.263Z,5.30
2023-02-24T09:53:13.824Z,5.30
2023-02-24T09:57:25.256Z,5.20
2023-02-24T10:01:33.327Z,5.20
2023-02-24T10:05:49.392Z,5.20
2023-02-24T10:10:18.962Z,5.20
2023-02-24T10:14:52.919Z,5.30
2023-02-24T10:19:16.419Z,5.30
2023-02-24T10:23:38.612Z,5.40
2023-02-24T10:27:58.156Z,5.30
2023-02-24T10:32:17.478Z,5.30
2023-02-24T10:36:25.763Z,5.40
2023-02-24T10:40:44.592Z,5.20
2023-02-24T10:45:01.352Z,5.20
2023-02-24T10:49:09.351Z,5.10
2023-02-24T10:53:37.625Z,5.00
2023-02-24T10:57:58.510Z,5.10
2023-02-24T11:02:23.658Z,5.00
2023-02-24T11:06:52.579Z,5.00
2023-02-24T11:10:58.735Z,5.00
2023-02-24T11:15:35.890Z,5.00
2023-02-24T11:20:10.616Z,5.00
2023-02-24T11:24:18.816Z,4.80
2023-02-24T11:28:44.782Z,4.70
2023-02-24T11:33:24.461Z,4.70
2023-02-24T11:37:34.526Z,4.60
2023-02-24T11:41:43.768Z,4.40
2023-02-24T11:46:02.121Z,4.40
2023-02-24T11:50:39.619Z,4.30
2023-02-24T11:54:47.716Z,4.30
2023-02-24T11:58:59.850Z,4.30
2023-02-24T12:03:09.405Z,4.30
2023-02-24T12:07:39.674Z,4.20
2023-02-24T12:12:00.101Z,4.10
2023-02-24T12:16:35.394Z,4.20
2023-02-24T12:20:55.395Z,4.20
2023-02-24T12:24:57.249Z,4.20
2023-02-24T12:29:23.081Z,4.20
2023-02-24T12:33:27.887Z,4.10
2023-02-24T12:38:03.513Z,4.20
2023-02-24T12:42:48.310Z,4.20
2023-02-24T12:47:14.680Z,4.30
2023-02-24T12:51:24.018Z,4.30
2023-02-24T12:55:50.179Z,4.30
2023-02-24T12:59:54.530Z,4.30
2023-02-24T13:04:31.144Z,4.30
2023-02-24T13:08:51.587Z,4.30
2023-02-24T13:13:16.068Z,4.30
2023-02-24T13:17:22.046Z,4.20
2023-02-24T13:21:24.738Z,4.20
2023-02-24T13:25:33.450Z,4.30
2023-02-24T13:29:47.231Z,4.30
2023-02-24T13:33:48.848Z,4.30
2023-02-24T13:37:51.766Z,4.20
2023-02-24T13:42:07.102Z,4.30
2023-02-24T13:46:19.309Z,4.30
2023-02-24T13:50:25.032Z,4.30
2023-02-24T13:54:58.382Z,4.20
2023-02-24T13:59:06.132Z,4.30
2023-02-24T14:03:18.117Z,4.40
2023-02-24T14:07:25.682Z,4.40
2023-02-24T14:11:32.422Z,4.40
2023-02-24T14:15:35.255Z,4.40
2023-02-24T14:19:36.990Z,4.40
2023-02-24T14:23:38.650Z,4.40
2023-02-24T14:27:42.949Z,4.50
2023-02-24T14:31:53.538Z,4.40
2023-02-24T14:35:55.846Z,4.40
2023-02-24T14:40:00.064Z,4.50
2023-02-24T14:44:21.132Z,4.60
2023-02-24T14:48:30.796Z,4.60
2023-02-24T14:53:07.485Z,4.70
2023-02-24T14:57:15.935Z,4.70
2023-02-24T15:01:23.841Z,4.80
2023-02-24T15:05:25.603Z,4.90
2023-02-24T15:09:41.195Z,4.90
2023-02-24T15:13:50.285Z,4.90
2023-02-24T15:17:56.965Z,4.90
2023-02-24T15:21:58.683Z,5.00
2023-02-24T15:26:01.541Z,5.10
2023-02-24T15:30:24.692Z,5.10
2023-02-24T15:34:31.059Z,5.20
2023-02-24T15:38:39.696Z,5.20
2023-02-24T15:42:54.157Z,5.30
2023-02-24T15:46:58.126Z,5.30
2023-02-24T15:51:05.137Z,5.30
2023-02-24T15:55:07.215Z,5.20
2023-02-24T15:59:14.870Z,5.30
2023-02-24T16:03:16.524Z,5.30
2023-02-24T16:07:25.707Z,5.30
2023-02-24T16:11:31.530Z,5.30
2023-02-24T16:15:37.792Z,5.30
2023-02-24T16:19:39.434Z,5.30
2023-02-24T16:23:41.082Z,5.30
2023-02-24T16:27:43.145Z,5.30
2023-02-24T16:31:45.093Z,5.30
2023-02-24T16:35:46.910Z,5.30
2023-02-24T16:39:49.390Z,5.30
2023-02-24T16:43:51.493Z,5.20
2023-02-24T16:47:54.911Z,5.20
2023-02-24T16:51:56.555Z,5.10
2023-02-24T16:55:58.238Z,5.10
2023-02-24T17:00:00.359Z,5.10
2023-02-24T17:04:04.796Z,5.20
2023-02-24T17:08:06.928Z,5.20
2023-02-24T17:12:12.551Z,5.20
2023-02-24T17:16:14.324Z,5.20
2023-02-24T17:20:18.341Z,5.20
2023-02-24T17:24:20.737Z,5.10
2023-02-24T17:28:22.834Z,5.00
2023-02-24T17:32:24.690Z,5.00
2023-02-24T17:36:26.427Z,4.90
2023-02-24T17:40:28.158Z,4.90
2023-02-24T17:44:29.824Z,5.00
2023-02-24T17:48:31.596Z,5.00
2023-02-24T17:52:33.394Z,5.10
2023-02-24T17:56:35.152Z,5.20
2023-02-24T18:00:38.307Z,5.50
2023-02-24T18:04:40.437Z,5.40
2023-02-24T18:08:42.282Z,5.40
2023-02-24T18:12:43.980Z,5.60
2023-02-24T18:16:45.592Z,5.80
2023-02-24T18:20:47.481Z,5.80
2023-02-24T18:24:49.325Z,5.80
2023-02-24T18:28:54.321Z,5.70
2023-02-24T18:32:56.300Z,5.60
2023-02-24T18:36:58.333Z,5.50
2023-02-24T18:41:06.195Z,5.40
2023-02-24T18:45:08.240Z,5.40
2023-02-24T18:49:11.520Z,5.30
2023-02-24T18:53:13.181Z,5.20
2023-02-24T18:57:14.885Z,5.10
2023-02-24T19:01:25.764Z,5.00
2023-02-24T19:05:37.745Z,4.90
2023-02-24T19:09:41.758Z,4.90
2023-02-24T19:13:44.098Z,4.70
2023-02-24T19:17:46.231Z,4.60
2023-02-24T19:21:49.366Z,4.60
2023-02-24T19:25:51.466Z,4.70
2023-02-24T19:29:54.297Z,4.70
2023-02-24T19:34:01.083Z,4.80
2023-02-24T19:38:02.835Z,4.60
2023-02-24T19:42:06.704Z,4.70
2023-02-24T19:46:11.962Z,4.70
2023-02-24T19:50:14.750Z,4.70
2023-02-24T19:54:16.730Z,4.80
2023-02-24T19:58:18.350Z,4.80
2023-02-24T20:02:20.041Z,4.80
2023-02-24T20:06:26.756Z,4.80
2023-02-24T20:10:28.367Z,4.70
2023-02-24T20:14:30.026Z,4.40
2023-02-24T20:18:32.165Z,4.30
2023-02-24T20:22:33.830Z,4.30
2023-02-24T20:26:36.974Z,4.40
2023-02-24T20:30:38.655Z,4.20
2023-02-24T20:34:41.061Z,4.30
2023-02-24T20:38:43.082Z,4.20
2023-02-24T20:42:44.718Z,4.10
2023-02-24T20:46:46.380Z,4.00
2023-02-24T20:50:48.274Z,4.00
2023-02-24T20:54:50.033Z,4.00
2023-02-24T20:58:53.979Z,3.90
2023-02-24T21:02:57.749Z,3.90
2023-02-24T21:06:59.423Z,4.00
2023-02-24T21:11:01.758Z,3.90
2023-02-24T21:15:04.142Z,3.90
2023-02-24T21:19:05.757Z,3.80
2023-02-24T21:23:09.265Z,3.70
2023-02-24T21:27:10.903Z,3.50
2023-02-24T21:31:16.702Z,3.50
2023-02-24T21:35:18.453Z,3.50
2023-02-24T21:39:20.751Z,3.40
2023-02-24T21:43:22.766Z,3.40
2023-02-24T21:47:24.721Z,3.50
2023-02-24T21:51:27.655Z,3.50
2023-02-24T21:55:29.321Z,3.50
2023-02-24T21:59:30.991Z,3.60
2023-02-24T22:03:32.762Z,3.60
2023-02-24T22:07:36.837Z,3.60
2023-02-24T22:11:40.850Z,3.70
2023-02-24T22:15:42.551Z,3.80
2023-02-24T22:19:44.642Z,3.80
2023-02-24T22:23:49.427Z,3.80
2023-02-24T22:27:51.023Z,3.80
2023-02-24T22:31:53.393Z,3.80
2023-02-24T22:35:55.514Z,3.90
2023-02-24T22:39:57.144Z,3.90
2023-02-24T22:44:00.036Z,3.90
2023-02-24T22:48:01.735Z,3.90
2023-02-24T22:52:03.852Z,3.90
2023-02-24T22:56:06.679Z,3.90
2023-02-24T23:00:19.865Z,3.80
2023-02-24T23:04:21.486Z,3.90
2023-02-24T23:08:24.009Z,3.90
2023-02-24T23:12:25.698Z,3.80
2023-02-24T23:16:31.573Z,3.90
2023-02-24T23:20:33.401Z,3.90
2023-02-24T23:24:35.970Z,3.80
2023-02-24T23:28:38.136Z,3.80
2023-02-24T23:32:39.932Z,3.80
2023-02-24T23:36:44.444Z,3.80
2023-02-24T23:40:50.943Z,3.90
2023-02-24T23:44:52.870Z,3.80
2023-02-24T23:48:57.153Z,3.90
2023-02-24T23:52:59.005Z,3.80
2023-02-24T23:57:00.896Z,3.80
